Time;durP1;ratioP1;P1;durP2;ratioP2;P2;SDS_P1;SDS_P2;PMS_P1;PMS_P2;Temp;Humidity;BMP_temperature;BMP_pressure;BME280_temperature;BME280_humidity;BME280_pressure;Samples;Min_cycle;Max_cycle;Signal;HPM_P1;HPM_P2
2022/03/03 00:00:11;;;;;;;;;;;22.00;25.70;;;;;;5073716;28;19920;-50
2022/03/03 00:02:40;;;;;;;;;;;21.90;25.60;;;;;;5076832;28;20371;-50
2022/03/03 00:05:06;;;;;;;;;;;21.90;25.60;;;;;;5076785;28;20015;-51
2022/03/03 00:07:32;;;;;;;;;;;21.90;25.70;;;;;;5077048;28;19973;-52
2022/03/03 00:09:57;;;;;;;;;;;21.90;25.60;;;;;;5074679;28;19919;-53
2022/03/03 00:12:23;;;;;;;;;;;21.90;25.70;;;;;;5076920;28;19917;-52
2022/03/03 00:14:48;;;;;;;;;;;21.90;25.70;;;;;;5073617;28;20348;-53
2022/03/03 00:17:14;;;;;;;;;;;21.90;25.70;;;;;;5076165;28;19920;-49
2022/03/03 00:19:40;;;;;;;;;;;21.90;25.70;;;;;;5075378;28;19909;-50
2022/03/03 00:22:06;;;;;;;;;;;21.90;25.70;;;;;;5075726;28;19924;-52
2022/03/03 00:24:32;;;;;;;;;;;21.90;25.70;;;;;;5060136;28;19905;-45
2022/03/03 00:26:58;;;;;;;;;;;21.90;25.70;;;;;;5075480;28;19909;-48
2022/03/03 00:29:23;;;;;;;;;;;21.90;25.70;;;;;;5074478;28;19908;-47
2022/03/03 00:31:49;;;;;;;;;;;21.90;25.70;;;;;;5074424;28;19935;-50
2022/03/03 00:34:15;;;;;;;;;;;21.80;25.60;;;;;;5062234;28;19909;-50
2022/03/03 00:36:41;;;;;;;;;;;21.90;25.70;;;;;;5073766;28;19908;-52
2022/03/03 00:39:07;;;;;;;;;;;21.80;25.60;;;;;;5063410;28;19919;-49
2022/03/03 00:41:32;;;;;;;;;;;21.80;25.60;;;;;;5071793;28;19917;-51
2022/03/03 00:43:58;;;;;;;;;;;21.80;25.60;;;;;;5076382;28;20007;-52
2022/03/03 00:46:25;;;;;;;;;;;21.80;25.70;;;;;;5075865;28;19912;-53
2022/03/03 00:48:51;;;;;;;;;;;21.80;25.70;;;;;;5075711;28;19908;-54
2022/03/03 00:51:17;;;;;;;;;;;21.80;25.70;;;;;;5075633;28;19908;-52
2022/03/03 00:53:43;;;;;;;;;;;21.80;25.70;;;;;;5057242;28;20330;-50
2022/03/03 00:56:09;;;;;;;;;;;21.80;25.70;;;;;;5075524;28;20007;-47
2022/03/03 00:58:34;;;;;;;;;;;21.80;25.70;;;;;;5058138;28;19916;-52
2022/03/03 01:01:01;;;;;;;;;;;21.80;25.70;;;;;;5066212;28;19999;-52
2022/03/03 01:03:27;;;;;;;;;;;21.80;25.70;;;;;;5056008;28;19913;-50
2022/03/03 01:05:53;;;;;;;;;;;21.80;25.70;;;;;;5065786;28;20208;-51
2022/03/03 01:08:19;;;;;;;;;;;21.80;25.70;;;;;;5075210;28;19908;-53
2022/03/03 01:10:44;;;;;;;;;;;21.70;25.70;;;;;;5074909;28;19912;-52
2022/03/03 01:13:10;;;;;;;;;;;21.70;25.70;;;;;;5075671;28;20015;-48
2022/03/03 01:15:35;;;;;;;;;;;21.70;25.70;;;;;;5074181;28;20361;-48
2022/03/03 01:18:01;;;;;;;;;;;21.70;25.70;;;;;;5068710;28;19919;-54
2022/03/03 01:20:30;;;;;;;;;;;21.70;25.70;;;;;;5073083;28;19924;-51
2022/03/03 01:22:56;;;;;;;;;;;21.70;25.70;;;;;;5055362;28;19967;-53
2022/03/03 01:25:22;;;;;;;;;;;21.70;25.70;;;;;;5072588;28;20359;-51
2022/03/03 01:27:48;;;;;;;;;;;21.70;25.70;;;;;;5074265;28;20272;-50
2022/03/03 01:30:14;;;;;;;;;;;21.70;25.70;;;;;;5074827;28;19916;-51
2022/03/03 01:32:40;;;;;;;;;;;21.70;25.70;;;;;;5074987;28;19914;-52
2022/03/03 01:35:05;;;;;;;;;;;21.70;25.70;;;;;;5066994;28;19967;-51
2022/03/03 01:37:31;;;;;;;;;;;21.70;25.70;;;;;;5055581;28;20000;-48
2022/03/03 01:39:57;;;;;;;;;;;21.70;25.70;;;;;;5061728;28;19919;-51
2022/03/03 01:42:23;;;;;;;;;;;21.70;25.80;;;;;;5064896;28;19951;-48
2022/03/03 01:44:48;;;;;;;;;;;21.70;25.80;;;;;;5069466;28;19909;-50
2022/03/03 01:47:15;;;;;;;;;;;21.60;25.80;;;;;;5055106;28;19947;-50
2022/03/03 01:49:41;;;;;;;;;;;21.60;25.80;;;;;;5065510;28;20369;-52
2022/03/03 01:52:06;;;;;;;;;;;21.60;25.80;;;;;;5075203;28;19908;-48
2022/03/03 01:54:32;;;;;;;;;;;21.60;25.80;;;;;;5070775;28;19920;-51
2022/03/03 01:56:58;;;;;;;;;;;21.60;25.80;;;;;;5066578;28;19927;-51
2022/03/03 01:59:24;;;;;;;;;;;21.60;25.80;;;;;;5068396;28;20243;-52
2022/03/03 02:01:50;;;;;;;;;;;21.60;25.80;;;;;;5063389;28;20011;-53
2022/03/03 02:04:15;;;;;;;;;;;21.60;25.80;;;;;;5069657;28;19908;-55
2022/03/03 02:06:41;;;;;;;;;;;21.60;25.80;;;;;;5062405;28;20020;-51
2022/03/03 02:09:06;;;;;;;;;;;21.60;25.80;;;;;;5075140;28;20327;-48
2022/03/03 02:11:32;;;;;;;;;;;21.60;25.90;;;;;;5075312;28;20227;-46
2022/03/03 02:14:01;;;;;;;;;;;21.60;25.80;;;;;;5072067;28;19920;-52
2022/03/03 02:16:26;;;;;;;;;;;21.60;25.80;;;;;;5061971;28;19908;-50
2022/03/03 02:18:52;;;;;;;;;;;21.60;25.80;;;;;;5073615;28;19919;-49
2022/03/03 02:21:18;;;;;;;;;;;21.60;25.80;;;;;;5074518;28;19997;-49
2022/03/03 02:23:43;;;;;;;;;;;21.60;25.80;;;;;;5074583;28;19920;-49
2022/03/03 02:26:12;;;;;;;;;;;21.60;25.80;;;;;;5061308;28;20225;-52
2022/03/03 02:28:39;;;;;;;;;;;21.50;25.80;;;;;;5072999;28;20409;-48
2022/03/03 02:31:05;;;;;;;;;;;21.50;25.80;;;;;;5058904;28;19924;-52
2022/03/03 02:33:30;;;;;;;;;;;21.50;25.80;;;;;;5074778;28;19908;-48
2022/03/03 02:36:13;;;;;;;;;;;21.50;25.80;;;;;;5059701;28;19959;-52
2022/03/03 02:38:38;;;;;;;;;;;21.50;26.30;;;;;;5060807;28;19909;-53
2022/03/03 02:41:04;;;;;;;;;;;21.50;25.80;;;;;;5057142;28;20057;-48
2022/03/03 02:43:29;;;;;;;;;;;21.50;25.80;;;;;;5061048;28;19920;-53
2022/03/03 02:45:55;;;;;;;;;;;21.50;25.90;;;;;;5058275;28;20239;-49
2022/03/03 02:48:21;;;;;;;;;;;21.50;25.90;;;;;;5060604;28;19940;-51
2022/03/03 02:50:46;;;;;;;;;;;21.50;25.90;;;;;;5074119;28;20002;-54
2022/03/03 02:53:12;;;;;;;;;;;21.50;25.90;;;;;;5078103;28;19943;-54
2022/03/03 02:55:38;;;;;;;;;;;21.50;25.90;;;;;;5077722;28;19920;-56
2022/03/03 02:58:05;;;;;;;;;;;21.50;25.90;;;;;;5078762;28;19923;-56
2022/03/03 03:00:38;;;;;;;;;;;21.40;25.90;;;;;;5060540;28;20023;-51
2022/03/03 03:03:04;;;;;;;;;;;21.50;25.90;;;;;;5058585;28;19967;-52
2022/03/03 03:05:30;;;;;;;;;;;21.50;25.90;;;;;;5077098;28;19948;-53
2022/03/03 03:07:56;;;;;;;;;;;21.50;25.90;;;;;;5078462;28;19920;-53
2022/03/03 03:10:21;;;;;;;;;;;21.40;25.90;;;;;;5061500;28;19909;-52
2022/03/03 03:12:47;;;;;;;;;;;21.40;25.90;;;;;;5057707;28;19909;-51
2022/03/03 03:15:13;;;;;;;;;;;21.40;25.90;;;;;;5074928;28;19909;-50
2022/03/03 03:17:38;;;;;;;;;;;21.40;25.90;;;;;;5076663;28;20268;-53
2022/03/03 03:20:06;;;;;;;;;;;21.40;25.90;;;;;;5077228;28;20306;-54
2022/03/03 03:22:32;;;;;;;;;;;21.40;25.90;;;;;;5078264;28;19913;-47
2022/03/03 03:24:58;;;;;;;;;;;21.40;25.90;;;;;;5076741;28;19908;-53
2022/03/03 03:27:24;;;;;;;;;;;21.40;25.90;;;;;;5077710;28;19995;-52
2022/03/03 03:29:49;;;;;;;;;;;21.40;25.90;;;;;;5076406;28;19980;-50
2022/03/03 03:32:15;;;;;;;;;;;21.40;25.90;;;;;;5077404;28;19926;-50
2022/03/03 03:34:41;;;;;;;;;;;21.40;25.90;;;;;;5076732;28;19970;-50
2022/03/03 03:37:06;;;;;;;;;;;21.40;25.90;;;;;;5077584;28;19908;-53
2022/03/03 03:39:32;;;;;;;;;;;21.40;25.90;;;;;;5076781;28;19909;-47
2022/03/03 03:41:58;;;;;;;;;;;21.40;25.90;;;;;;5076067;28;19939;-50
2022/03/03 03:44:23;;;;;;;;;;;21.40;25.90;;;;;;5076140;28;20224;-54
2022/03/03 03:46:49;;;;;;;;;;;21.30;25.90;;;;;;5077208;28;20323;-51
2022/03/03 03:49:14;;;;;;;;;;;21.40;26.40;;;;;;5066125;28;20344;-52
2022/03/03 03:51:40;;;;;;;;;;;21.30;25.90;;;;;;5064937;28;19909;-51
2022/03/03 03:54:06;;;;;;;;;;;21.40;25.90;;;;;;5067126;28;20099;-56
2022/03/03 03:56:31;;;;;;;;;;;21.30;25.90;;;;;;5060430;28;20008;-51
2022/03/03 03:58:57;;;;;;;;;;;21.30;25.90;;;;;;5064464;28;20181;-54
2022/03/03 04:01:23;;;;;;;;;;;21.30;25.90;;;;;;5076332;28;19924;-51
2022/03/03 04:03:48;;;;;;;;;;;21.30;25.90;;;;;;5076595;28;19919;-54
2022/03/03 04:06:14;;;;;;;;;;;21.30;25.90;;;;;;5072320;28;20343;-55
2022/03/03 04:08:40;;;;;;;;;;;21.30;25.90;;;;;;5063350;28;19944;-49
2022/03/03 04:11:06;;;;;;;;;;;21.30;25.90;;;;;;5075742;28;19942;-52
2022/03/03 04:13:31;;;;;;;;;;;21.30;25.90;;;;;;5076875;28;19909;-53
2022/03/03 04:15:57;;;;;;;;;;;21.30;25.90;;;;;;5076586;28;19915;-55
2022/03/03 04:18:22;;;;;;;;;;;21.30;25.90;;;;;;5070678;28;19972;-51
2022/03/03 04:20:48;;;;;;;;;;;21.30;25.90;;;;;;5069923;28;20377;-52
2022/03/03 04:23:17;;;;;;;;;;;21.30;25.90;;;;;;5075170;28;20406;-50
2022/03/03 04:25:43;;;;;;;;;;;21.30;25.90;;;;;;5076259;28;20359;-50
2022/03/03 04:28:09;;;;;;;;;;;21.30;25.90;;;;;;5075896;28;19908;-48
2022/03/03 04:30:35;;;;;;;;;;;21.30;25.90;;;;;;5076518;28;19913;-53
2022/03/03 04:33:00;;;;;;;;;;;21.30;25.90;;;;;;5068159;28;19920;-50
2022/03/03 04:35:26;;;;;;;;;;;21.30;25.90;;;;;;5068324;28;19909;-52
2022/03/03 04:37:51;;;;;;;;;;;21.20;25.90;;;;;;5069795;28;19909;-52
2022/03/03 04:40:17;;;;;;;;;;;21.20;25.90;;;;;;5056612;28;20351;-50
2022/03/03 04:42:43;;;;;;;;;;;21.20;25.90;;;;;;5066576;28;19959;-47
2022/03/03 04:45:09;;;;;;;;;;;21.20;25.90;;;;;;5056359;28;19908;-50
2022/03/03 04:47:35;;;;;;;;;;;21.20;25.90;;;;;;5070103;28;20363;-55
2022/03/03 04:50:00;;;;;;;;;;;21.20;25.90;;;;;;5076155;28;19951;-51
2022/03/03 04:52:26;;;;;;;;;;;21.20;25.90;;;;;;5064771;28;19940;-49
2022/03/03 04:54:52;;;;;;;;;;;21.20;26.00;;;;;;5056059;28;19920;-51
2022/03/03 04:57:18;;;;;;;;;;;21.20;26.00;;;;;;5057121;28;19920;-51
2022/03/03 04:59:43;;;;;;;;;;;21.20;26.00;;;;;;5071220;28;19909;-50
2022/03/03 05:02:09;;;;;;;;;;;21.20;26.00;;;;;;5067140;28;19943;-51
2022/03/03 05:04:35;;;;;;;;;;;21.20;26.00;;;;;;5055906;28;19944;-51
2022/03/03 05:07:01;;;;;;;;;;;21.20;26.00;;;;;;5057894;28;19909;-51
2022/03/03 05:09:27;;;;;;;;;;;21.20;25.90;;;;;;5056323;28;19909;-54
2022/03/03 05:11:52;;;;;;;;;;;21.20;26.00;;;;;;5073010;28;20213;-52
2022/03/03 05:14:18;;;;;;;;;;;21.20;26.00;;;;;;5075949;28;20205;-51
2022/03/03 05:16:44;;;;;;;;;;;21.20;26.00;;;;;;5066036;28;19970;-53
2022/03/03 05:19:09;;;;;;;;;;;21.20;26.00;;;;;;5075195;28;19912;-52
2022/03/03 05:21:35;;;;;;;;;;;21.20;26.00;;;;;;5073966;28;19916;-54
2022/03/03 05:24:01;;;;;;;;;;;21.20;26.00;;;;;;5055431;28;19909;-50
2022/03/03 05:26:26;;;;;;;;;;;21.10;25.90;;;;;;5060684;28;19920;-50
2022/03/03 05:28:52;;;;;;;;;;;21.10;25.90;;;;;;5074062;28;20272;-55
2022/03/03 05:31:18;;;;;;;;;;;21.10;25.90;;;;;;5074786;28;19916;-51
2022/03/03 05:33:43;;;;;;;;;;;21.10;25.90;;;;;;5072926;28;19908;-55
2022/03/03 05:36:10;;;;;;;;;;;21.10;25.90;;;;;;5070962;28;19955;-51
2022/03/03 05:38:36;;;;;;;;;;;21.10;25.90;;;;;;5072270;28;19919;-52
2022/03/03 05:41:02;;;;;;;;;;;21.10;25.90;;;;;;5069765;28;19916;-51
2022/03/03 05:43:28;;;;;;;;;;;21.10;25.90;;;;;;5074119;28;19918;-57
2022/03/03 05:45:54;;;;;;;;;;;21.10;25.90;;;;;;5067478;28;19913;-52
2022/03/03 05:48:21;;;;;;;;;;;21.10;26.00;;;;;;5074241;28;19908;-55
2022/03/03 05:50:46;;;;;;;;;;;21.10;26.00;;;;;;5067358;28;19920;-52
2022/03/03 05:53:13;;;;;;;;;;;21.10;26.00;;;;;;5075350;28;20243;-51
2022/03/03 05:55:42;;;;;;;;;;;21.10;26.00;;;;;;5068045;28;19946;-51
2022/03/03 05:58:10;;;;;;;;;;;21.10;26.00;;;;;;5074903;28;19984;-56
2022/03/03 06:00:36;;;;;;;;;;;21.10;26.00;;;;;;5074128;28;19913;-53
2022/03/03 06:03:02;;;;;;;;;;;21.10;26.00;;;;;;5068397;28;19924;-52
2022/03/03 06:05:28;;;;;;;;;;;21.10;26.00;;;;;;5068048;28;19909;-54
2022/03/03 06:07:57;;;;;;;;;;;21.10;26.00;;;;;;5062570;28;20251;-51
2022/03/03 06:10:24;;;;;;;;;;;21.10;26.00;;;;;;5078267;28;19908;-48
2022/03/03 06:12:55;;;;;;;;;;;21.10;26.00;;;;;;5078527;28;20342;-55
2022/03/03 06:15:25;;;;;;;;;;;21.00;26.00;;;;;;5060312;28;20300;-50
2022/03/03 06:17:51;;;;;;;;;;;21.00;26.00;;;;;;5065732;28;20243;-54
2022/03/03 06:20:20;;;;;;;;;;;21.00;26.00;;;;;;5078048;28;19921;-48
2022/03/03 06:22:46;;;;;;;;;;;21.00;26.00;;;;;;5070433;28;19913;-52
2022/03/03 06:25:13;;;;;;;;;;;21.00;26.00;;;;;;5077876;28;20182;-50
2022/03/03 06:27:38;;;;;;;;;;;21.00;26.00;;;;;;5073773;28;19918;-53
2022/03/03 06:30:05;;;;;;;;;;;21.00;26.00;;;;;;5078540;28;19917;-48
2022/03/03 06:32:30;;;;;;;;;;;21.00;26.00;;;;;;5073768;28;19999;-52
2022/03/03 06:34:56;;;;;;;;;;;21.00;26.00;;;;;;5078459;28;19944;-49
2022/03/03 06:37:22;;;;;;;;;;;21.00;25.90;;;;;;5074804;28;19999;-50
2022/03/03 06:39:47;;;;;;;;;;;21.00;25.90;;;;;;5078096;28;20335;-49
2022/03/03 06:42:13;;;;;;;;;;;21.00;25.90;;;;;;5065824;28;19928;-53
2022/03/03 06:44:38;;;;;;;;;;;21.00;25.90;;;;;;5078111;28;20003;-50
2022/03/03 06:47:04;;;;;;;;;;;21.00;25.90;;;;;;5070182;28;19923;-52
2022/03/03 06:49:30;;;;;;;;;;;21.00;25.90;;;;;;5078518;28;19973;-48
2022/03/03 06:51:57;;;;;;;;;;;21.00;25.80;;;;;;5061908;28;19920;-48
2022/03/03 06:54:23;;;;;;;;;;;21.00;25.80;;;;;;5060252;28;19909;-49
2022/03/03 06:56:56;;;;;;;;;;;20.90;25.80;;;;;;5075250;28;20309;-47
2022/03/03 06:59:23;;;;;;;;;;;21.00;25.80;;;;;;5075065;28;19909;-46
2022/03/03 07:01:50;;;;;;;;;;;20.90;25.70;;;;;;5077708;28;20083;-51
2022/03/03 07:04:16;;;;;;;;;;;20.90;25.70;;;;;;5075362;28;19913;-54
2022/03/03 07:06:42;;;;;;;;;;;21.00;25.80;;;;;;5076987;28;19919;-56
2022/03/03 07:09:08;;;;;;;;;;;20.90;25.70;;;;;;5076771;28;19909;-53
2022/03/03 07:11:34;;;;;;;;;;;20.90;25.80;;;;;;5077637;28;20474;-52
2022/03/03 07:14:00;;;;;;;;;;;20.90;25.70;;;;;;5069305;28;19995;-51
2022/03/03 07:16:25;;;;;;;;;;;20.90;25.80;;;;;;5074712;28;20008;-49
2022/03/03 07:18:52;;;;;;;;;;;20.90;25.80;;;;;;5077049;28;19908;-56
2022/03/03 07:21:28;;;;;;;;;;;20.90;25.80;;;;;;5072901;28;19916;-55
2022/03/03 07:24:02;;;;;;;;;;;20.90;25.80;;;;;;5077671;28;19913;-52
2022/03/03 07:26:27;;;;;;;;;;;20.90;25.80;;;;;;5077487;28;19920;-49
2022/03/03 07:28:54;;;;;;;;;;;20.90;25.80;;;;;;5076460;28;19916;-49
2022/03/03 07:31:23;;;;;;;;;;;20.90;25.80;;;;;;5075694;28;19909;-54
2022/03/03 07:34:01;;;;;;;;;;;20.90;25.80;;;;;;5075376;28;19962;-51
2022/03/03 07:36:28;;;;;;;;;;;20.90;25.90;;;;;;5072993;28;20251;-52
2022/03/03 07:38:59;;;;;;;;;;;20.90;25.90;;;;;;5084153;28;20103;-57
2022/03/03 07:41:25;;;;;;;;;;;20.90;25.90;;;;;;5073257;28;19959;-52
2022/03/03 07:43:52;;;;;;;;;;;20.90;25.90;;;;;;5076175;28;20007;-54
2022/03/03 07:46:17;;;;;;;;;;;20.90;25.90;;;;;;5075346;28;19969;-48
2022/03/03 07:48:46;;;;;;;;;;;20.90;25.90;;;;;;5076715;28;19912;-57
2022/03/03 07:51:12;;;;;;;;;;;20.90;25.90;;;;;;5076149;28;19950;-54
2022/03/03 07:53:38;;;;;;;;;;;20.90;25.90;;;;;;5077152;28;20017;-53
2022/03/03 07:56:04;;;;;;;;;;;20.90;25.90;;;;;;5076545;28;20015;-53
2022/03/03 07:58:37;;;;;;;;;;;20.90;25.90;;;;;;5075970;28;19908;-52
2022/03/03 08:01:05;;;;;;;;;;;20.90;25.90;;;;;;5076166;28;19913;-51
2022/03/03 08:03:31;;;;;;;;;;;20.90;25.90;;;;;;5075885;28;20354;-53
2022/03/03 08:06:04;;;;;;;;;;;20.90;25.90;;;;;;5074801;28;19912;-55
2022/03/03 08:08:30;;;;;;;;;;;20.90;25.90;;;;;;5076130;28;19918;-53
2022/03/03 08:11:02;;;;;;;;;;;20.90;25.90;;;;;;5076825;28;19908;-56
2022/03/03 08:13:28;;;;;;;;;;;20.90;25.90;;;;;;5076838;28;19919;-51
2022/03/03 08:15:54;;;;;;;;;;;20.90;25.90;;;;;;5076351;28;19920;-56
2022/03/03 08:18:20;;;;;;;;;;;20.80;25.80;;;;;;5075943;28;20235;-55
2022/03/03 08:20:45;;;;;;;;;;;20.90;25.80;;;;;;5088391;28;19912;-51
2022/03/03 08:23:12;;;;;;;;;;;20.80;25.80;;;;;;5076910;28;19978;-51
2022/03/03 08:25:37;;;;;;;;;;;20.90;25.80;;;;;;5075977;28;19912;-54
2022/03/03 08:28:03;;;;;;;;;;;20.90;25.90;;;;;;5075346;28;20368;-50
2022/03/03 08:30:30;;;;;;;;;;;20.90;25.80;;;;;;5076082;28;19933;-51
2022/03/03 08:32:55;;;;;;;;;;;20.90;25.90;;;;;;5076652;28;19920;-51
2022/03/03 08:35:22;;;;;;;;;;;20.90;25.90;;;;;;5076403;28;20243;-48
2022/03/03 08:37:54;;;;;;;;;;;20.80;26.30;;;;;;5075610;28;20351;-54
2022/03/03 08:40:19;;;;;;;;;;;20.80;25.80;;;;;;5076386;28;20335;-52
2022/03/03 08:42:48;;;;;;;;;;;20.90;25.80;;;;;;5076027;28;19923;-53
2022/03/03 08:45:16;;;;;;;;;;;20.90;25.70;;;;;;5076440;28;19912;-53
2022/03/03 08:47:42;;;;;;;;;;;20.80;25.70;;;;;;5075882;28;20255;-48
2022/03/03 08:50:11;;;;;;;;;;;20.80;25.60;;;;;;5076446;28;19923;-49
2022/03/03 08:52:38;;;;;;;;;;;20.90;25.60;;;;;;5075820;28;19916;-54
2022/03/03 08:55:04;;;;;;;;;;;20.80;25.60;;;;;;5075562;28;19908;-51
2022/03/03 08:57:30;;;;;;;;;;;20.90;25.60;;;;;;5074220;28;19923;-53
2022/03/03 08:59:56;;;;;;;;;;;20.80;25.50;;;;;;5076058;28;19916;-58
2022/03/03 09:02:21;;;;;;;;;;;20.80;25.50;;;;;;5075319;28;19926;-51
2022/03/03 09:04:47;;;;;;;;;;;20.80;25.40;;;;;;5076011;28;19909;-54
2022/03/03 09:07:14;;;;;;;;;;;20.90;25.50;;;;;;5075625;28;19908;-51
2022/03/03 09:09:39;;;;;;;;;;;20.90;25.40;;;;;;5074186;28;19959;-54
2022/03/03 09:12:05;;;;;;;;;;;20.90;25.40;;;;;;5075430;28;19966;-48
2022/03/03 09:14:31;;;;;;;;;;;20.90;25.40;;;;;;5075047;28;19909;-50
2022/03/03 09:16:56;;;;;;;;;;;20.80;25.30;;;;;;5074595;28;19938;-52
2022/03/03 09:19:22;;;;;;;;;;;20.90;25.40;;;;;;5074851;28;20304;-53
2022/03/03 09:21:48;;;;;;;;;;;20.90;25.30;;;;;;5074649;28;19999;-52
2022/03/03 09:24:13;;;;;;;;;;;20.90;25.30;;;;;;5074344;28;19920;-53
2022/03/03 09:26:39;;;;;;;;;;;20.80;25.30;;;;;;5073871;28;19912;-51
2022/03/03 09:29:05;;;;;;;;;;;20.90;25.30;;;;;;5074927;28;19919;-57
2022/03/03 09:31:31;;;;;;;;;;;20.80;25.30;;;;;;5074181;28;19913;-54
2022/03/03 09:33:56;;;;;;;;;;;20.90;25.30;;;;;;5068615;28;19956;-57
2022/03/03 09:36:22;;;;;;;;;;;20.80;25.20;;;;;;5065695;28;19909;-51
2022/03/03 09:38:48;;;;;;;;;;;20.90;25.30;;;;;;5069352;28;19918;-55
2022/03/03 09:41:13;;;;;;;;;;;20.90;25.30;;;;;;5074199;28;20015;-53
2022/03/03 09:43:40;;;;;;;;;;;20.90;25.30;;;;;;5071549;28;19936;-51
2022/03/03 09:46:06;;;;;;;;;;;20.80;25.30;;;;;;5054231;28;19909;-54
2022/03/03 09:48:32;;;;;;;;;;;20.80;25.30;;;;;;5066574;28;19908;-55
2022/03/03 09:50:57;;;;;;;;;;;20.80;25.30;;;;;;5055477;28;19909;-51
2022/03/03 09:53:23;;;;;;;;;;;20.90;25.30;;;;;;5060770;28;19909;-51
2022/03/03 09:55:49;;;;;;;;;;;20.80;25.30;;;;;;5065203;28;19908;-50
2022/03/03 09:58:15;;;;;;;;;;;20.90;25.30;;;;;;5068637;28;20328;-54
2022/03/03 10:00:41;;;;;;;;;;;20.90;25.30;;;;;;5075515;28;19921;-53
2022/03/03 10:03:10;;;;;;;;;;;20.90;25.30;;;;;;5074409;28;20290;-52
2022/03/03 10:05:45;;;;;;;;;;;20.90;25.30;;;;;;5073317;28;19919;-52
2022/03/03 10:08:12;;;;;;;;;;;20.90;25.40;;;;;;5070131;28;19909;-52
2022/03/03 10:10:39;;;;;;;;;;;20.90;25.40;;;;;;5056691;28;19908;-51
2022/03/03 10:13:05;;;;;;;;;;;20.90;25.40;;;;;;5075027;28;19908;-53
2022/03/03 10:15:32;;;;;;;;;;;20.90;25.40;;;;;;5074510;28;19920;-51
2022/03/03 10:18:02;;;;;;;;;;;20.90;25.40;;;;;;5074396;28;19909;-49
2022/03/03 10:20:29;;;;;;;;;;;20.90;25.40;;;;;;5074512;28;19909;-51
2022/03/03 10:22:58;;;;;;;;;;;20.90;25.40;;;;;;5074585;28;19918;-53
2022/03/03 10:25:32;;;;;;;;;;;20.90;25.40;;;;;;5071522;28;19921;-46
2022/03/03 10:28:16;;;;;;;;;;;20.90;25.40;;;;;;5062811;28;19913;-51
2022/03/03 10:30:48;;;;;;;;;;;20.90;25.40;;;;;;5058585;28;19939;-53
2022/03/03 10:33:18;;;;;;;;;;;20.90;25.40;;;;;;5071720;28;19918;-52
2022/03/03 10:35:57;;;;;;;;;;;20.90;25.40;;;;;;5073651;28;20290;-50
2022/03/03 10:38:23;;;;;;;;;;;20.90;25.40;;;;;;5057571;28;20310;-51
2022/03/03 10:40:49;;;;;;;;;;;20.90;25.40;;;;;;5074328;28;19964;-50
2022/03/03 10:43:14;;;;;;;;;;;20.90;25.40;;;;;;5072009;28;19928;-48
2022/03/03 10:45:59;;;;;;;;;;;20.90;25.40;;;;;;5066437;28;19909;-48
2022/03/03 10:48:25;;;;;;;;;;;20.90;25.40;;;;;;5058286;28;20351;-50
2022/03/03 10:50:52;;;;;;;;;;;20.90;25.40;;;;;;5070831;28;20352;-47
2022/03/03 10:53:18;;;;;;;;;;;20.90;25.40;;;;;;5071206;28;20103;-49
2022/03/03 10:56:00;;;;;;;;;;;20.90;25.40;;;;;;5063208;28;19966;-47
2022/03/03 10:58:44;;;;;;;;;;;20.90;25.40;;;;;;5067957;28;19916;-51
2022/03/03 11:01:10;;;;;;;;;;;20.90;25.40;;;;;;5074948;28;19912;-48
2022/03/03 11:03:36;;;;;;;;;;;20.90;25.40;;;;;;5066778;28;19920;-50
2022/03/03 11:06:03;;;;;;;;;;;20.90;25.40;;;;;;5077180;28;19938;-49
2022/03/03 11:08:29;;;;;;;;;;;20.90;25.90;;;;;;5076837;28;20327;-47
2022/03/03 11:10:55;;;;;;;;;;;20.90;25.40;;;;;;5076231;28;19913;-49
2022/03/03 11:13:22;;;;;;;;;;;20.90;25.40;;;;;;5069369;28;19939;-47
2022/03/03 11:15:48;;;;;;;;;;;20.90;25.40;;;;;;5068658;28;19963;-49
2022/03/03 11:18:18;;;;;;;;;;;20.90;25.40;;;;;;5061837;28;19908;-48
2022/03/03 11:20:47;;;;;;;;;;;20.90;25.40;;;;;;5063685;28;20217;-50
2022/03/03 11:23:13;;;;;;;;;;;20.90;25.40;;;;;;5073191;28;19931;-49
2022/03/03 11:25:38;;;;;;;;;;;20.90;25.40;;;;;;5075686;28;20319;-50
2022/03/03 11:28:08;;;;;;;;;;;20.90;25.40;;;;;;5067362;28;20301;-50
2022/03/03 11:30:35;;;;;;;;;;;20.90;25.50;;;;;;5063267;28;19913;-49
2022/03/03 11:33:20;;;;;;;;;;;20.90;25.50;;;;;;5072482;28;19908;-52
2022/03/03 11:35:47;;;;;;;;;;;20.90;25.60;;;;;;5062884;28;19916;-51
2022/03/03 11:38:12;;;;;;;;;;;20.90;25.60;;;;;;5069292;28;19909;-52
2022/03/03 11:40:49;;;;;;;;;;;20.80;25.60;;;;;;5071042;28;19973;-46
2022/03/03 11:43:15;;;;;;;;;;;20.70;25.60;;;;;;5087952;28;19920;-52
2022/03/03 11:45:48;;;;;;;;;;;20.80;25.60;;;;;;5075271;28;19983;-53
2022/03/03 11:48:19;;;;;;;;;;;20.70;25.60;;;;;;5075116;28;19917;-48
2022/03/03 11:50:45;;;;;;;;;;;20.70;25.60;;;;;;5058312;28;19912;-50
2022/03/03 11:53:10;;;;;;;;;;;20.70;25.60;;;;;;5071939;28;20011;-52
2022/03/03 11:55:37;;;;;;;;;;;20.60;25.60;;;;;;5057291;28;19935;-49
2022/03/03 11:58:07;;;;;;;;;;;20.60;25.60;;;;;;5073214;28;19912;-53
2022/03/03 12:00:52;;;;;;;;;;;20.60;25.60;;;;;;5066979;28;20457;-47
2022/03/03 12:03:17;;;;;;;;;;;20.60;25.60;;;;;;5070312;28;19944;-50
2022/03/03 12:05:43;;;;;;;;;;;20.60;25.60;;;;;;5075327;28;20021;-49
2022/03/03 12:08:11;;;;;;;;;;;20.60;25.60;;;;;;5063114;28;19984;-47
2022/03/03 12:10:38;;;;;;;;;;;20.60;25.60;;;;;;5073344;28;19920;-48
2022/03/03 12:13:42;;;;;;;;;;;20.60;25.60;;;;;;5072885;28;19908;-52
2022/03/03 12:16:15;;;;;;;;;;;20.50;25.60;;;;;;5048144;28;19920;-48
2022/03/03 12:18:42;;;;;;;;;;;20.50;25.60;;;;;;5022059;28;19910;-47
2022/03/03 12:21:28;;;;;;;;;;;20.50;25.60;;;;;;5040837;28;19983;-48
2022/03/03 12:24:14;;;;;;;;;;;20.60;25.70;;;;;;5066503;28;19955;-52
2022/03/03 12:27:01;;;;;;;;;;;20.60;25.70;;;;;;5076786;28;19909;-49
2022/03/03 12:29:33;;;;;;;;;;;20.70;25.70;;;;;;5056576;28;20232;-52
2022/03/03 12:32:17;;;;;;;;;;;20.80;25.70;;;;;;5068412;28;19908;-50
2022/03/03 12:34:43;;;;;;;;;;;20.80;25.70;;;;;;5074134;28;19908;-50
2022/03/03 12:37:09;;;;;;;;;;;20.90;25.60;;;;;;5060112;28;20225;-51
2022/03/03 12:39:35;;;;;;;;;;;20.90;25.60;;;;;;5060136;28;19908;-48
2022/03/03 12:42:01;;;;;;;;;;;20.90;25.50;;;;;;5071133;28;19951;-52
2022/03/03 12:44:28;;;;;;;;;;;21.00;25.50;;;;;;5066078;28;19908;-47
2022/03/03 12:46:55;;;;;;;;;;;21.00;25.40;;;;;;5062549;28;19999;-50
2022/03/03 12:49:22;;;;;;;;;;;21.00;25.40;;;;;;5059652;28;19920;-54
2022/03/03 12:51:48;;;;;;;;;;;21.10;25.40;;;;;;5066922;28;20212;-57
2022/03/03 12:54:18;;;;;;;;;;;21.00;25.30;;;;;;5071209;28;19908;-49
2022/03/03 12:56:56;;;;;;;;;;;21.10;25.40;;;;;;5074135;28;19912;-52
2022/03/03 12:59:22;;;;;;;;;;;21.10;25.40;;;;;;5073311;28;19939;-55
2022/03/03 13:01:49;;;;;;;;;;;21.20;25.40;;;;;;5070916;28;19916;-54
2022/03/03 13:04:20;;;;;;;;;;;21.20;25.30;;;;;;5063609;28;20779;-56
2022/03/03 13:06:45;;;;;;;;;;;21.10;25.20;;;;;;5067194;28;19944;-55
2022/03/03 13:09:12;;;;;;;;;;;21.10;25.20;;;;;;5074050;28;19955;-48
2022/03/03 13:11:37;;;;;;;;;;;21.10;25.20;;;;;;5075059;28;19969;-51
2022/03/03 13:14:07;;;;;;;;;;;21.00;25.20;;;;;;5070596;28;19909;-45
2022/03/03 13:16:39;;;;;;;;;;;21.00;25.20;;;;;;5076477;28;19908;-53
2022/03/03 13:19:05;;;;;;;;;;;21.00;25.10;;;;;;5087008;28;19981;-52
2022/03/03 13:21:32;;;;;;;;;;;21.00;25.10;;;;;;5056171;28;20327;-55
2022/03/03 13:24:02;;;;;;;;;;;21.00;25.10;;;;;;5055439;28;19956;-51
2022/03/03 13:26:47;;;;;;;;;;;21.00;25.00;;;;;;5055488;28;19909;-53
2022/03/03 13:29:17;;;;;;;;;;;21.00;25.00;;;;;;5058519;28;19919;-49
2022/03/03 13:31:43;;;;;;;;;;;21.00;25.00;;;;;;5066048;28;19963;-51
2022/03/03 13:34:21;;;;;;;;;;;21.10;25.00;;;;;;5071238;28;20335;-48
2022/03/03 13:36:47;;;;;;;;;;;21.10;24.90;;;;;;5055397;28;19909;-50
2022/03/03 13:39:22;;;;;;;;;;;21.10;24.80;;;;;;5069093;28;19908;-48
2022/03/03 13:41:57;;;;;;;;;;;21.10;24.80;;;;;;5074669;28;19916;-53
2022/03/03 13:44:23;;;;;;;;;;;21.20;24.80;;;;;;5074243;28;19935;-48
2022/03/03 13:46:55;;;;;;;;;;;21.20;24.80;;;;;;5059351;28;20343;-48
2022/03/03 13:49:22;;;;;;;;;;;21.20;24.70;;;;;;5057559;28;19931;-49
2022/03/03 13:52:06;;;;;;;;;;;21.20;24.70;;;;;;5067853;28;20200;-48
2022/03/03 13:54:38;;;;;;;;;;;21.20;24.80;;;;;;5060627;28;19920;-51
2022/03/03 13:57:06;;;;;;;;;;;21.20;24.90;;;;;;5072615;28;20081;-46
2022/03/03 13:59:51;;;;;;;;;;;21.20;24.90;;;;;;5073781;28;20327;-48
2022/03/03 14:02:18;;;;;;;;;;;21.20;24.90;;;;;;5057591;28;19917;-45
2022/03/03 14:04:57;;;;;;;;;;;21.20;25.00;;;;;;5064002;28;20358;-47
2022/03/03 14:07:27;;;;;;;;;;;21.20;25.00;;;;;;5074992;28;19919;-45
2022/03/03 14:09:59;;;;;;;;;;;21.30;25.50;;;;;;5060369;28;19935;-54
2022/03/03 14:12:25;;;;;;;;;;;21.30;25.00;;;;;;5068867;28;19912;-52
2022/03/03 14:14:51;;;;;;;;;;;21.30;25.10;;;;;;5070836;28;19920;-50
2022/03/03 14:17:16;;;;;;;;;;;21.30;25.10;;;;;;5074048;28;19919;-50